createdAt,value
2018-04-02T00:00:42.963Z,2.30
2018-04-02T00:03:09.693Z,2.00
2018-04-02T00:05:36.564Z,2.30
2018-04-02T00:08:03.278Z,1.77
2018-04-02T00:10:30.052Z,2.00
2018-04-02T00:12:56.774Z,2.10
2018-04-02T00:15:23.489Z,2.20
2018-04-02T00:17:50.302Z,2.10
2018-04-02T00:20:17.004Z,2.10
2018-04-02T00:22:43.720Z,2.10
2018-04-02T00:25:10.461Z,2.13
2018-04-02T00:27:37.157Z,2.20
2018-04-02T00:30:03.870Z,2.20
2018-04-02T00:32:30.609Z,2.10
2018-04-02T00:34:57.313Z,2.27
2018-04-02T00:37:24.046Z,2.10
2018-04-02T00:39:50.768Z,2.23
2018-04-02T00:42:17.469Z,2.00
2018-04-02T00:44:44.169Z,2.40
2018-04-02T00:47:10.997Z,2.00
2018-04-02T00:49:37.697Z,2.30
2018-04-02T00:52:04.424Z,2.20
2018-04-02T00:54:31.151Z,2.13
2018-04-02T00:56:57.853Z,2.07
2018-04-02T00:59:24.561Z,2.03
2018-04-02T01:01:51.297Z,2.20
2018-04-02T01:04:18.012Z,2.00
2018-04-02T01:06:44.709Z,2.10
2018-04-02T01:09:11.436Z,2.20
2018-04-02T01:11:38.149Z,2.20
2018-04-02T01:14:04.849Z,2.30
2018-04-02T01:16:31.589Z,2.20
2018-04-02T01:18:58.291Z,2.30
2018-04-02T01:21:24.985Z,2.30
2018-04-02T01:23:51.705Z,2.20
2018-04-02T01:26:18.408Z,2.07
2018-04-02T01:28:45.129Z,2.03
2018-04-02T01:31:11.945Z,2.07
2018-04-02T01:33:38.645Z,2.07
2018-04-02T01:36:05.350Z,2.40
2018-04-02T01:38:32.140Z,2.13
2018-04-02T01:40:58.841Z,2.27
2018-04-02T01:43:25.541Z,2.27
2018-04-02T01:45:52.276Z,2.13
2018-04-02T01:48:18.983Z,2.13
2018-04-02T01:50:45.701Z,1.93
2018-04-02T01:53:12.425Z,2.20
2018-04-02T01:55:39.117Z,2.13
2018-04-02T01:58:05.813Z,1.97
2018-04-02T02:00:32.550Z,2.23
2018-04-02T02:02:59.246Z,1.73
2018-04-02T02:05:25.949Z,1.70
2018-04-02T02:07:52.682Z,1.80
2018-04-02T02:10:19.389Z,2.20
2018-04-02T02:12:46.097Z,2.10
2018-04-02T02:15:12.832Z,2.30
2018-04-02T02:17:39.537Z,2.20
2018-04-02T02:20:06.253Z,1.70
2018-04-02T02:22:32.985Z,2.17
2018-04-02T02:24:59.699Z,2.13
2018-04-02T02:27:26.432Z,2.60
2018-04-02T02:29:53.165Z,2.20
2018-04-02T02:32:19.863Z,2.10
2018-04-02T02:34:46.667Z,1.93
2018-04-02T02:37:13.403Z,2.20
2018-04-02T02:39:40.113Z,1.80
2018-04-02T02:42:06.822Z,1.80
2018-04-02T02:44:33.545Z,2.10
2018-04-02T02:47:00.285Z,2.30
2018-04-02T02:49:27.119Z,2.20
2018-04-02T02:51:53.852Z,2.40
2018-04-02T02:54:20.570Z,2.30
2018-04-02T02:56:47.290Z,2.10
2018-04-02T02:59:14.028Z,2.20
2018-04-02T03:01:40.742Z,2.10
2018-04-02T03:04:07.441Z,2.20
2018-04-02T03:06:34.170Z,2.47
2018-04-02T03:09:00.877Z,2.00
2018-04-02T03:11:27.581Z,2.07
2018-04-02T03:13:54.308Z,2.13
2018-04-02T03:16:21.034Z,2.10
2018-04-02T03:18:47.750Z,2.30
2018-04-02T03:21:14.477Z,2.13
2018-04-02T03:23:41.174Z,2.00
2018-04-02T03:26:07.885Z,2.13
2018-04-02T03:28:34.613Z,2.00
2018-04-02T03:31:01.311Z,2.23
2018-04-02T03:33:28.014Z,2.00
2018-04-02T03:35:54.857Z,1.97
2018-04-02T03:38:21.577Z,2.30
2018-04-02T03:40:48.289Z,2.20
2018-04-02T03:43:15.030Z,2.03
2018-04-02T03:45:41.753Z,2.40
2018-04-02T03:48:08.458Z,2.27
2018-04-02T03:50:35.187Z,2.10
2018-04-02T03:53:01.893Z,2.47
2018-04-02T03:55:28.594Z,2.40
2018-04-02T03:57:55.313Z,2.40
2018-04-02T04:00:22.024Z,2.47
2018-04-02T04:02:48.735Z,2.30
2018-04-02T04:05:15.470Z,2.10
2018-04-02T04:07:42.183Z,2.10
2018-04-02T04:10:08.877Z,2.23
2018-04-02T04:12:35.606Z,2.40
2018-04-02T04:15:02.317Z,2.40
2018-04-02T04:17:29.013Z,2.13
2018-04-02T04:19:55.746Z,2.00
2018-04-02T04:22:22.613Z,2.60
2018-04-02T04:24:49.317Z,1.80
2018-04-02T04:27:16.041Z,2.27
2018-04-02T04:29:42.744Z,2.27
2018-04-02T04:32:09.453Z,2.10
2018-04-02T04:34:36.188Z,1.90
2018-04-02T04:37:02.901Z,2.20
2018-04-02T04:39:29.621Z,2.13
2018-04-02T04:41:56.388Z,1.83
2018-04-02T04:44:23.086Z,2.10
2018-04-02T04:46:49.785Z,2.27
2018-04-02T04:49:16.752Z,2.50
2018-04-02T04:51:43.461Z,2.03
2018-04-02T04:54:10.159Z,2.30
2018-04-02T04:56:36.890Z,2.60
2018-04-02T04:59:03.586Z,2.50
2018-04-02T05:01:30.287Z,2.40
2018-04-02T05:03:57.023Z,2.40
2018-04-02T05:06:23.734Z,2.20
2018-04-02T05:08:50.437Z,2.70
2018-04-02T05:11:17.174Z,2.10
2018-04-02T05:13:43.868Z,2.50
2018-04-02T05:16:10.578Z,2.17
2018-04-02T05:18:37.313Z,2.20
2018-04-02T05:21:04.033Z,2.17
2018-04-02T05:23:30.737Z,2.20
2018-04-02T05:25:57.475Z,2.30
2018-04-02T05:28:24.182Z,2.30
2018-04-02T05:30:50.897Z,2.47
2018-04-02T05:33:17.627Z,2.70
2018-04-02T05:35:44.335Z,2.13
2018-04-02T05:38:11.037Z,2.30
2018-04-02T05:40:37.768Z,2.27
2018-04-02T05:43:04.469Z,2.20
2018-04-02T05:45:32.050Z,2.17
2018-04-02T05:47:58.780Z,2.17
2018-04-02T05:50:25.532Z,2.20
2018-04-02T05:52:52.426Z,2.30
2018-04-02T05:55:19.161Z,2.10
2018-04-02T05:57:45.917Z,2.23
2018-04-02T06:00:12.677Z,2.20
2018-04-02T06:02:39.413Z,2.20
2018-04-02T06:05:06.129Z,2.00
2018-04-02T06:07:33.077Z,2.00
2018-04-02T06:09:59.813Z,2.30
2018-04-02T06:12:26.519Z,1.97
2018-04-02T06:14:53.237Z,2.10
2018-04-02T06:17:19.961Z,2.10
2018-04-02T06:19:46.661Z,2.40
2018-04-02T06:22:13.381Z,2.20
2018-04-02T06:24:40.101Z,2.00
2018-04-02T06:27:06.804Z,1.93
2018-04-02T06:29:33.509Z,2.50
2018-04-02T06:32:00.245Z,2.40
2018-04-02T06:34:26.953Z,2.20
2018-04-02T06:36:53.724Z,2.10
2018-04-02T06:39:20.420Z,1.93
2018-04-02T06:41:47.159Z,2.23
2018-04-02T06:44:13.869Z,2.20
2018-04-02T06:46:40.599Z,2.10
2018-04-02T06:49:07.325Z,2.20
2018-04-02T06:51:34.158Z,2.27
2018-04-02T06:54:00.892Z,2.20
2018-04-02T06:56:27.648Z,2.77
2018-04-02T06:58:54.348Z,2.47
2018-04-02T07:01:21.070Z,2.27
2018-04-02T07:03:47.804Z,2.47
2018-04-02T07:06:14.521Z,2.40
2018-04-02T07:08:41.709Z,1.90
2018-04-02T07:11:08.435Z,2.40
2018-04-02T07:13:35.138Z,2.57
2018-04-02T07:16:01.873Z,2.50
2018-04-02T07:18:28.573Z,2.70
2018-04-02T07:20:55.283Z,2.30
2018-04-02T07:23:22.021Z,2.17
2018-04-02T07:25:48.775Z,2.40
2018-04-02T07:28:15.666Z,2.10
2018-04-02T07:30:42.480Z,2.40
2018-04-02T07:33:09.380Z,2.23
2018-04-02T07:35:36.086Z,2.53
2018-04-02T07:38:02.814Z,2.40
2018-04-02T07:40:29.527Z,2.10
2018-04-02T07:42:56.799Z,2.30
2018-04-02T07:45:23.531Z,2.07
2018-04-02T07:47:50.241Z,1.97
2018-04-02T07:50:16.941Z,2.03
2018-04-02T07:52:43.676Z,2.20
2018-04-02T07:55:10.382Z,2.23
2018-04-02T07:57:37.086Z,1.90
2018-04-02T08:00:03.824Z,2.37
2018-04-02T08:02:30.539Z,2.90
2018-04-02T08:04:57.245Z,2.40
2018-04-02T08:07:23.972Z,2.20
2018-04-02T08:09:50.757Z,2.40
2018-04-02T08:12:17.457Z,2.50
2018-04-02T08:14:44.185Z,2.50
2018-04-02T08:17:27.263Z,2.27
2018-04-02T08:19:53.999Z,2.47
2018-04-02T08:22:20.715Z,2.30
2018-04-02T08:24:47.441Z,2.10
2018-04-02T08:27:14.165Z,2.37
2018-04-02T08:29:40.884Z,2.43
2018-04-02T08:32:07.596Z,2.90
2018-04-02T08:34:34.320Z,2.90
2018-04-02T08:37:01.031Z,2.73
2018-04-02T08:42:13.321Z,2.73
2018-04-02T08:44:40.028Z,2.90
2018-04-02T08:47:06.733Z,2.37
2018-04-02T08:49:33.461Z,2.60
2018-04-02T08:52:00.169Z,2.80
2018-04-02T08:54:26.873Z,2.73
2018-04-02T08:56:53.643Z,2.50
2018-04-02T08:59:20.352Z,2.50
2018-04-02T09:01:47.066Z,2.77
2018-04-02T09:04:13.801Z,2.33
2018-04-02T09:06:40.506Z,2.40
2018-04-02T09:09:07.200Z,2.37
2018-04-02T09:11:33.945Z,2.50
2018-04-02T09:14:00.652Z,2.30
2018-04-02T09:16:27.349Z,3.00
2018-04-02T09:18:54.074Z,2.97
2018-04-02T09:21:20.781Z,3.43
2018-04-02T09:23:47.485Z,5.03
2018-04-02T09:26:14.217Z,2.33
2018-04-02T09:28:40.917Z,2.40
2018-04-02T09:31:07.625Z,2.43
2018-04-02T09:33:34.363Z,2.27
2018-04-02T09:36:01.069Z,2.30
2018-04-02T09:38:27.807Z,2.23
2018-04-02T09:40:54.558Z,2.63
2018-04-02T09:43:21.257Z,2.50
2018-04-02T09:45:47.977Z,2.20
2018-04-02T09:48:14.701Z,2.70
2018-04-02T09:50:41.410Z,1.93
2018-04-02T09:53:08.121Z,2.43
2018-04-02T09:55:34.852Z,2.00
2018-04-02T09:58:01.613Z,2.40
2018-04-02T10:00:33.104Z,2.20
2018-04-02T10:03:00.540Z,2.37
2018-04-02T10:05:27.253Z,2.20
2018-04-02T10:07:53.963Z,2.20
2018-04-02T10:10:20.748Z,2.33
2018-04-02T10:12:47.424Z,2.20
2018-04-02T10:15:15.419Z,2.60
2018-04-02T10:17:42.181Z,2.20
2018-04-02T10:20:09.701Z,2.23
2018-04-02T10:22:36.434Z,2.53
2018-04-02T10:25:03.175Z,2.90
2018-04-02T10:27:29.881Z,2.83
2018-04-02T10:29:56.596Z,2.63
2018-04-02T10:32:23.370Z,2.40
2018-04-02T10:34:50.065Z,3.33
2018-04-02T10:37:16.785Z,2.13
2018-04-02T10:39:43.527Z,2.30
2018-04-02T10:42:10.225Z,2.83
2018-04-02T10:44:36.930Z,2.70
2018-04-02T10:47:03.665Z,2.87
2018-04-02T10:49:30.389Z,2.50
2018-04-02T10:51:57.096Z,2.57
2018-04-02T10:54:23.845Z,2.60
2018-04-02T10:56:50.545Z,2.60
2018-04-02T10:59:17.257Z,2.27
2018-04-02T11:01:43.999Z,2.60
2018-04-02T11:04:10.699Z,2.50
2018-04-02T11:06:37.410Z,3.07
2018-04-02T11:09:04.145Z,3.00
2018-04-02T11:11:30.844Z,3.00
2018-04-02T11:13:57.550Z,2.83
2018-04-02T11:16:24.359Z,2.80
2018-04-02T11:18:51.053Z,3.23
2018-04-02T11:21:17.945Z,3.07
2018-04-02T11:23:44.722Z,3.50
2018-04-02T11:26:11.506Z,3.70
2018-04-02T11:28:38.318Z,4.23
2018-04-02T11:31:05.060Z,3.60
2018-04-02T11:33:31.761Z,3.40
2018-04-02T11:35:58.465Z,3.10
2018-04-02T11:38:25.330Z,2.67
2018-04-02T11:40:52.034Z,2.97
2018-04-02T11:43:18.738Z,2.70
2018-04-02T11:45:45.489Z,3.03
2018-04-02T11:48:12.268Z,3.10
2018-04-02T11:50:38.937Z,2.67
2018-04-02T11:53:05.677Z,3.10
2018-04-02T11:55:32.385Z,3.10
2018-04-02T11:57:59.087Z,3.30
2018-04-02T12:00:25.822Z,3.20
2018-04-02T12:02:52.529Z,3.63
2018-04-02T12:05:19.228Z,3.20
2018-04-02T12:07:45.957Z,3.20
2018-04-02T12:10:12.660Z,3.10
2018-04-02T12:12:39.380Z,3.00
2018-04-02T12:15:06.110Z,3.43
2018-04-02T12:17:32.823Z,3.10
2018-04-02T12:19:59.550Z,2.53
2018-04-02T12:22:26.285Z,2.70
2018-04-02T12:24:53.000Z,2.60
2018-04-02T12:27:19.704Z,2.93
2018-04-02T12:29:46.433Z,2.90
2018-04-02T12:32:13.134Z,2.70
2018-04-02T12:34:39.842Z,2.90
2018-04-02T12:37:06.597Z,2.70
2018-04-02T12:39:33.307Z,2.53
2018-04-02T12:42:00.019Z,2.57
2018-04-02T12:44:26.749Z,2.57
2018-04-02T12:46:53.477Z,2.70
2018-04-02T12:49:20.181Z,2.73
2018-04-02T12:51:46.908Z,2.47
2018-04-02T12:54:13.640Z,2.60
2018-04-02T12:56:40.341Z,2.40
2018-04-02T12:59:07.075Z,3.30
2018-04-02T13:01:33.787Z,2.30
2018-04-02T13:04:00.498Z,2.50
2018-04-02T13:06:27.462Z,2.30
2018-04-02T13:08:54.169Z,2.57
2018-04-02T13:11:20.869Z,2.70
2018-04-02T13:13:47.602Z,2.60
2018-04-02T13:16:14.301Z,2.43
2018-04-02T13:18:41.001Z,2.10
2018-04-02T13:21:07.742Z,2.33
2018-04-02T13:23:34.461Z,2.20
2018-04-02T13:26:01.168Z,2.60
2018-04-02T13:28:27.973Z,2.30
2018-04-02T13:30:54.677Z,2.47
2018-04-02T13:33:21.379Z,2.20
2018-04-02T13:35:48.141Z,2.13
2018-04-02T13:38:14.884Z,2.30
2018-04-02T13:40:41.717Z,2.00
2018-04-02T13:43:08.462Z,2.07
2018-04-02T13:45:35.192Z,2.07
2018-04-02T13:48:01.968Z,2.23
2018-04-02T13:50:28.674Z,2.00
2018-04-02T13:52:55.408Z,2.17
2018-04-02T13:55:22.106Z,1.70
2018-04-02T13:57:48.822Z,2.03
2018-04-02T14:00:15.748Z,2.20
2018-04-02T14:02:42.449Z,1.97
2018-04-02T14:05:09.151Z,2.20
2018-04-02T14:07:35.881Z,1.60
2018-04-02T14:10:02.586Z,1.80
2018-04-02T14:12:29.301Z,1.87
2018-04-02T14:14:56.030Z,1.80
2018-04-02T14:17:22.797Z,1.60
2018-04-02T14:19:49.493Z,1.50
2018-04-02T14:22:16.229Z,1.70
2018-04-02T14:24:42.988Z,1.50
2018-04-02T14:27:09.673Z,1.47
2018-04-02T14:29:36.425Z,1.60
2018-04-02T14:32:03.141Z,1.40
2018-04-02T14:34:29.861Z,1.90
2018-04-02T14:36:56.613Z,1.70
2018-04-02T14:39:23.320Z,1.60
2018-04-02T14:41:50.024Z,1.63
2018-04-02T14:44:16.821Z,2.07
2018-04-02T14:46:43.524Z,1.70
2018-04-02T14:49:10.222Z,1.63
2018-04-02T14:51:36.942Z,1.80
2018-04-02T14:54:03.641Z,1.50
2018-04-02T14:56:30.345Z,1.60
2018-04-02T14:58:57.081Z,1.40
2018-04-02T15:01:23.795Z,1.37
2018-04-02T15:03:50.534Z,1.23
2018-04-02T15:06:17.274Z,1.20
2018-04-02T15:08:43.977Z,1.27
2018-04-02T15:11:10.682Z,1.50
2018-04-02T15:13:37.418Z,1.30
2018-04-02T15:16:04.112Z,0.87
2018-04-02T15:18:30.821Z,1.33
2018-04-02T15:20:57.575Z,1.10
2018-04-02T15:23:24.297Z,1.00
2018-04-02T15:25:50.993Z,1.00
2018-04-02T15:28:17.738Z,1.80
2018-04-02T15:30:44.448Z,1.27
2018-04-02T15:33:11.149Z,1.40
2018-04-02T15:35:37.878Z,1.20
2018-04-02T15:38:04.578Z,1.27
2018-04-02T15:40:31.272Z,1.00
2018-04-02T15:42:57.999Z,1.00
2018-04-02T15:45:24.717Z,0.93
2018-04-02T15:47:51.412Z,1.30
2018-04-02T15:50:18.141Z,1.00
2018-04-02T15:52:44.849Z,1.07
2018-04-02T15:55:11.553Z,1.17
2018-04-02T15:57:38.282Z,1.00
2018-04-02T16:00:05.005Z,1.10
2018-04-02T16:02:31.762Z,0.90
2018-04-02T16:04:58.497Z,0.80
2018-04-02T16:07:25.210Z,0.90
2018-04-02T16:09:52.241Z,1.10
2018-04-02T16:12:18.971Z,1.00
2018-04-02T16:14:45.673Z,1.07
2018-04-02T16:17:12.381Z,1.20
2018-04-02T16:19:39.293Z,1.20
2018-04-02T16:22:05.997Z,0.87
2018-04-02T16:24:32.705Z,0.87
2018-04-02T16:26:59.437Z,1.00
2018-04-02T16:29:26.145Z,0.80
2018-04-02T16:31:52.846Z,1.00
2018-04-02T16:34:19.589Z,1.20
2018-04-02T16:36:46.301Z,1.33
2018-04-02T16:39:13.012Z,1.13
2018-04-02T16:41:39.968Z,1.00
2018-04-02T16:44:06.691Z,1.30
2018-04-02T16:46:33.417Z,1.00
2018-04-02T16:49:00.145Z,0.90
2018-04-02T16:51:26.853Z,1.00
2018-04-02T16:53:53.557Z,1.00
2018-04-02T16:56:20.297Z,0.97
2018-04-02T16:58:46.993Z,0.90
2018-04-02T17:01:13.692Z,0.80
2018-04-02T17:03:40.434Z,0.90
2018-04-02T17:06:07.134Z,1.60
2018-04-02T17:08:33.882Z,1.20
2018-04-02T17:11:00.622Z,1.10
2018-04-02T17:13:27.337Z,1.37
2018-04-02T17:15:54.037Z,2.30
2018-04-02T17:18:20.771Z,1.37
2018-04-02T17:20:47.483Z,1.40
2018-04-02T17:23:14.185Z,1.50
2018-04-02T17:25:40.913Z,1.37
2018-04-02T17:28:07.626Z,1.60
2018-04-02T17:30:34.402Z,1.50
2018-04-02T17:33:01.965Z,1.53
2018-04-02T17:35:28.666Z,1.30
2018-04-02T17:37:55.376Z,2.20
2018-04-02T17:40:22.130Z,1.20
2018-04-02T17:42:48.829Z,2.80
2018-04-02T17:45:15.575Z,1.73
2018-04-02T17:47:42.309Z,1.33
2018-04-02T17:50:09.016Z,1.50
2018-04-02T17:52:35.735Z,1.70
2018-04-02T17:55:02.521Z,1.70
2018-04-02T17:57:29.237Z,1.20
2018-04-02T17:59:55.958Z,1.23
2018-04-02T18:02:22.705Z,1.03
2018-04-02T18:04:49.409Z,1.10
2018-04-02T18:07:16.109Z,1.10
2018-04-02T18:09:42.829Z,1.03
2018-04-02T18:12:09.529Z,0.90
2018-04-02T18:14:36.244Z,1.00
2018-04-02T18:17:02.972Z,1.40
2018-04-02T18:19:29.681Z,1.20
2018-04-02T18:21:56.385Z,1.07
2018-04-02T18:24:23.129Z,1.00
2018-04-02T18:26:49.841Z,1.50
2018-04-02T18:29:16.538Z,1.30
2018-04-02T18:31:43.281Z,1.20
2018-04-02T18:34:09.986Z,1.20
2018-04-02T18:36:36.685Z,1.13
2018-04-02T18:39:04.300Z,1.27
2018-04-02T18:41:31.005Z,1.30
2018-04-02T18:43:57.721Z,1.80
2018-04-02T18:46:24.449Z,1.50
2018-04-02T18:48:51.149Z,1.30
2018-04-02T18:51:17.860Z,1.40
2018-04-02T18:53:44.597Z,0.90
2018-04-02T18:56:11.302Z,1.03
2018-04-02T18:58:38.026Z,1.60
2018-04-02T19:01:04.754Z,1.43
2018-04-02T19:03:31.462Z,1.00
2018-04-02T19:05:58.197Z,1.23
2018-04-02T19:08:24.986Z,1.50
2018-04-02T19:10:52.140Z,1.30
2018-04-02T19:13:18.858Z,2.67
2018-04-02T19:15:45.638Z,2.57
2018-04-02T19:18:12.340Z,2.20
2018-04-02T19:20:39.048Z,2.50
2018-04-02T19:23:05.931Z,2.20
2018-04-02T19:25:32.645Z,1.40
2018-04-02T19:27:59.345Z,1.20
2018-04-02T19:30:26.073Z,1.40
2018-04-02T19:32:52.769Z,1.50
2018-04-02T19:35:19.473Z,1.30
2018-04-02T19:37:46.214Z,1.20
2018-04-02T19:40:12.945Z,1.20
2018-04-02T19:42:39.653Z,1.30
2018-04-02T19:45:06.386Z,1.10
2018-04-02T19:47:33.097Z,1.20
2018-04-02T19:49:59.821Z,1.47
2018-04-02T19:52:26.561Z,1.20
2018-04-02T19:54:53.257Z,1.53
2018-04-02T19:57:19.970Z,1.30
2018-04-02T19:59:46.749Z,1.20
2018-04-02T20:02:13.473Z,1.30
2018-04-02T20:04:40.178Z,1.23
2018-04-02T20:07:10.166Z,1.47
2018-04-02T20:09:36.865Z,1.07
2018-04-02T20:12:03.581Z,0.90
2018-04-02T20:14:30.316Z,1.13
2018-04-02T20:16:57.033Z,1.10
2018-04-02T20:19:23.769Z,1.23
2018-04-02T20:21:50.546Z,1.37
2018-04-02T20:24:17.245Z,1.00
2018-04-02T20:26:43.958Z,1.30
2018-04-02T20:29:10.716Z,1.40
2018-04-02T20:31:37.420Z,1.13
2018-04-02T20:34:04.125Z,1.27
2018-04-02T20:36:30.853Z,1.10
2018-04-02T20:38:57.573Z,1.40
2018-04-02T20:41:24.285Z,1.30
2018-04-02T20:43:51.033Z,1.23
2018-04-02T20:46:19.133Z,1.40
2018-04-02T20:48:45.841Z,1.30
2018-04-02T20:51:12.575Z,1.00
2018-04-02T20:53:39.289Z,1.03
2018-04-02T20:56:06.002Z,1.13
2018-04-02T20:58:32.738Z,1.13
2018-04-02T21:00:59.475Z,1.20
2018-04-02T21:03:26.196Z,1.00
2018-04-02T21:05:53.001Z,1.00
2018-04-02T21:08:19.713Z,0.97
2018-04-02T21:10:46.409Z,1.30
2018-04-02T21:13:13.144Z,1.13
2018-04-02T21:15:39.854Z,1.30
2018-04-02T21:18:07.437Z,1.00
2018-04-02T21:20:34.173Z,1.00
2018-04-02T21:23:00.877Z,1.10
2018-04-02T21:25:27.580Z,1.10
2018-04-02T21:27:54.317Z,1.10
2018-04-02T21:30:21.022Z,1.17
2018-04-02T21:32:47.721Z,1.13
2018-04-02T21:35:14.445Z,1.40
2018-04-02T21:37:41.153Z,1.47
2018-04-02T21:40:07.856Z,1.33
2018-04-02T21:42:34.661Z,1.10
2018-04-02T21:45:01.361Z,1.27
2018-04-02T21:47:28.077Z,3.57
2018-04-02T21:49:54.814Z,3.60
2018-04-02T21:52:21.509Z,1.70
2018-04-02T21:54:48.267Z,1.90
2018-04-02T21:57:15.030Z,2.00
2018-04-02T21:59:41.755Z,2.13
2018-04-02T22:02:08.466Z,1.63
2018-04-02T22:04:35.225Z,1.70
2018-04-02T22:07:03.697Z,1.83
2018-04-02T22:09:30.413Z,1.90
2018-04-02T22:11:57.257Z,1.63
2018-04-02T22:14:23.958Z,1.70
2018-04-02T22:16:50.681Z,1.70
2018-04-02T22:19:17.409Z,1.80
2018-04-02T22:21:44.114Z,1.77
2018-04-02T22:24:11.158Z,1.80
2018-04-02T22:26:37.896Z,1.70
2018-04-02T22:29:04.601Z,1.80
2018-04-02T22:31:31.314Z,1.70
2018-04-02T22:33:58.077Z,1.40
2018-04-02T22:36:24.777Z,1.50
2018-04-02T22:38:51.493Z,1.67
2018-04-02T22:41:18.230Z,1.30
2018-04-02T22:43:44.957Z,1.50
2018-04-02T22:46:11.701Z,1.47
2018-04-02T22:48:38.441Z,1.77
2018-04-02T22:51:05.151Z,1.70
2018-04-02T22:53:31.861Z,1.60
2018-04-02T22:55:58.624Z,1.70
2018-04-02T22:58:25.337Z,1.90
2018-04-02T23:00:52.065Z,2.03
2018-04-02T23:03:18.807Z,1.77
2018-04-02T23:05:45.615Z,2.00
2018-04-02T23:08:12.321Z,1.73
2018-04-02T23:10:39.054Z,2.10
2018-04-02T23:13:05.777Z,1.97
2018-04-02T23:15:32.492Z,1.83
2018-04-02T23:17:59.225Z,2.20
2018-04-02T23:20:25.948Z,2.20
2018-04-02T23:22:52.717Z,1.87
2018-04-02T23:25:19.451Z,1.20
2018-04-02T23:27:46.155Z,1.40
2018-04-02T23:30:12.859Z,1.23
2018-04-02T23:32:39.601Z,1.50
2018-04-02T23:35:06.310Z,1.50
2018-04-02T23:37:33.006Z,1.50
2018-04-02T23:39:59.741Z,1.20
2018-04-02T23:42:26.457Z,1.27
2018-04-02T23:44:53.157Z,1.10
2018-04-02T23:47:19.888Z,1.33
2018-04-02T23:49:46.605Z,1.13
2018-04-02T23:52:13.305Z,1.20
2018-04-02T23:54:40.045Z,1.30
2018-04-02T23:57:06.754Z,1.17
2018-04-02T23:59:33.528Z,1.20
